This is the latest recevied weather packets stored in our database for station/object LTAC. If no packets are shown the sender has not sent any weather packets the latest 10 day(s).
| Time | Temp. | Humidity | Pressure | Rain* | Wind** | Luminosity | Snow |
|---|---|---|---|---|---|---|---|
| 1777319103 | 11.11° C | 62% | 1018 hPa | - | - | - | - |
| 1777317303 | 12.22° C | 58% | 1018 hPa | - | - | - | - |
| 1777316405 | 12.22° C | 58% | 1018 hPa | - | - | - | - |
| 1777315504 | 12.78° C | 54% | 1017 hPa | - | - | - | - |
| 1777312805 | 13.89° C | 54% | 1017 hPa | - | - | - | - |
| 1777311005 | 13.89° C | 54% | 1016 hPa | - | - | - | - |
| 1777309204 | 15° C | 51% | 1016 hPa | - | - | - | - |
| 1777307404 | 17.22° C | 42% | 1016 hPa | - | - | - | - |
| 1777306504 | 17.22° C | 39% | 1016 hPa | - | - | - | - |
| 1777304704 | 18.89° C | 37% | 1016 hPa | - | - | - | - |
| 1777302904 | 18.89° C | 32% | 1016 hPa | - | - | - | - |
| 1777302005 | 18.89° C | 32% | 1016 hPa | - | - | - | - |
| 1777301104 | 20° C | 32% | 1016 hPa | - | - | - | - |
| 1777300204 | 20° C | 32% | 1016 hPa | - | - | - | - |
| 1777299304 | 20° C | 32% | 1016 hPa | - | - | - | - |
| 1777298405 | 20° C | 32% | 1016 hPa | - | - | - | - |
| 1777293904 | 18.89° C | 32% | 1017 hPa | - | - | - | - |
| 1777292104 | 18.89° C | 34% | 1017 hPa | - | - | - | - |
| 1777290304 | 17.78° C | 36% | 1017 hPa | - | - | - | - |
| 1777289405 | 17.78° C | 36% | 1017 hPa | - | - | - | - |
| 1777287605 | 17.78° C | 39% | 1018 hPa | - | - | - | - |
| 1777286704 | 17.78° C | 34% | 1018 hPa | - | - | - | - |
| 1777284005 | 17.78° C | 34% | 1018 hPa | - | - | - | - |
| 1777282204 | 17.78° C | 36% | 1018 hPa | - | - | - | - |
| 1777281303 | 17.22° C | 39% | 1018 hPa | - | - | - | - |
* Rain since midnight (hover to see other rain measurements)
** Current wind speed in m/s (hover to see current wind gust speed)